sensor_id;sensor_type;location;lat;lon;timestamp;P1;durP1;ratioP1;P2;durP2;ratioP2
10884;SDS011;5495;53.252;10.390;2023-01-29T00:01:45;16.23;;;11.30;;
10884;SDS011;5495;53.252;10.390;2023-01-29T00:07:51;18.70;;;11.80;;
10884;SDS011;5495;53.252;10.390;2023-01-29T00:10:24;15.43;;;10.67;;
10884;SDS011;5495;53.252;10.390;2023-01-29T00:12:52;20.90;;;11.87;;
10884;SDS011;5495;53.252;10.390;2023-01-29T00:15:19;20.90;;;12.10;;
10884;SDS011;5495;53.252;10.390;2023-01-29T00:17:50;19.77;;;12.03;;
10884;SDS011;5495;53.252;10.390;2023-01-29T00:20:30;20.80;;;12.83;;
10884;SDS011;5495;53.252;10.390;2023-01-29T00:23:06;20.37;;;12.53;;
10884;SDS011;5495;53.252;10.390;2023-01-29T00:25:36;17.53;;;11.67;;
10884;SDS011;5495;53.252;10.390;2023-01-29T00:28:10;18.43;;;12.00;;
10884;SDS011;5495;53.252;10.390;2023-01-29T00:30:40;18.23;;;12.47;;
10884;SDS011;5495;53.252;10.390;2023-01-29T00:33:08;18.43;;;11.93;;
10884;SDS011;5495;53.252;10.390;2023-01-29T00:35:38;21.07;;;12.30;;
10884;SDS011;5495;53.252;10.390;2023-01-29T00:38:13;19.70;;;12.40;;
10884;SDS011;5495;53.252;10.390;2023-01-29T00:40:43;16.70;;;11.60;;
10884;SDS011;5495;53.252;10.390;2023-01-29T00:43:28;22.07;;;13.37;;
10884;SDS011;5495;53.252;10.390;2023-01-29T00:46:13;20.13;;;13.27;;
10884;SDS011;5495;53.252;10.390;2023-01-29T00:48:41;21.27;;;12.73;;
10884;SDS011;5495;53.252;10.390;2023-01-29T00:51:09;18.57;;;12.13;;
10884;SDS011;5495;53.252;10.390;2023-01-29T00:53:45;20.40;;;13.07;;
10884;SDS011;5495;53.252;10.390;2023-01-29T00:56:21;19.27;;;12.57;;
10884;SDS011;5495;53.252;10.390;2023-01-29T00:58:51;21.67;;;12.93;;
10884;SDS011;5495;53.252;10.390;2023-01-29T01:01:18;19.20;;;12.63;;
10884;SDS011;5495;53.252;10.390;2023-01-29T01:04:08;18.80;;;12.43;;
10884;SDS011;5495;53.252;10.390;2023-01-29T01:06:41;19.13;;;12.93;;
10884;SDS011;5495;53.252;10.390;2023-01-29T01:09:11;22.47;;;14.30;;
10884;SDS011;5495;53.252;10.390;2023-01-29T01:11:55;19.13;;;13.00;;
10884;SDS011;5495;53.252;10.390;2023-01-29T01:14:26;23.30;;;13.07;;
10884;SDS011;5495;53.252;10.390;2023-01-29T01:17:03;21.27;;;13.13;;
10884;SDS011;5495;53.252;10.390;2023-01-29T01:19:30;20.93;;;13.07;;
10884;SDS011;5495;53.252;10.390;2023-01-29T01:22:00;20.17;;;13.00;;
10884;SDS011;5495;53.252;10.390;2023-01-29T01:24:30;20.90;;;12.93;;
10884;SDS011;5495;53.252;10.390;2023-01-29T01:27:09;21.30;;;12.93;;
10884;SDS011;5495;53.252;10.390;2023-01-29T01:30:03;18.20;;;12.47;;
10884;SDS011;5495;53.252;10.390;2023-01-29T01:32:40;18.50;;;12.27;;
10884;SDS011;5495;53.252;10.390;2023-01-29T01:35:09;18.57;;;12.20;;
10884;SDS011;5495;53.252;10.390;2023-01-29T01:37:37;19.83;;;13.17;;
10884;SDS011;5495;53.252;10.390;2023-01-29T01:40:12;20.27;;;13.33;;
10884;SDS011;5495;53.252;10.390;2023-01-29T01:42:43;21.73;;;12.53;;
10884;SDS011;5495;53.252;10.390;2023-01-29T01:45:16;16.80;;;11.33;;
10884;SDS011;5495;53.252;10.390;2023-01-29T01:47:55;20.93;;;12.30;;
10884;SDS011;5495;53.252;10.390;2023-01-29T01:50:29;19.53;;;11.93;;
10884;SDS011;5495;53.252;10.390;2023-01-29T01:53:01;19.63;;;11.23;;
10884;SDS011;5495;53.252;10.390;2023-01-29T01:55:36;20.23;;;12.00;;
10884;SDS011;5495;53.252;10.390;2023-01-29T01:58:16;18.07;;;11.10;;
10884;SDS011;5495;53.252;10.390;2023-01-29T02:00:48;17.40;;;11.00;;
10884;SDS011;5495;53.252;10.390;2023-01-29T02:03:18;16.33;;;10.83;;
10884;SDS011;5495;53.252;10.390;2023-01-29T02:06:05;18.17;;;11.80;;
10884;SDS011;5495;53.252;10.390;2023-01-29T02:08:53;21.17;;;12.60;;
10884;SDS011;5495;53.252;10.390;2023-01-29T02:11:47;18.33;;;12.20;;
10884;SDS011;5495;53.252;10.390;2023-01-29T02:14:15;19.83;;;12.20;;
10884;SDS011;5495;53.252;10.390;2023-01-29T02:16:43;22.60;;;12.37;;
10884;SDS011;5495;53.252;10.390;2023-01-29T02:19:22;19.73;;;12.63;;
10884;SDS011;5495;53.252;10.390;2023-01-29T02:22:06;18.47;;;11.97;;
10884;SDS011;5495;53.252;10.390;2023-01-29T02:28:13;17.87;;;12.10;;
10884;SDS011;5495;53.252;10.390;2023-01-29T02:30:49;17.20;;;11.40;;
10884;SDS011;5495;53.252;10.390;2023-01-29T02:33:29;18.90;;;11.60;;
10884;SDS011;5495;53.252;10.390;2023-01-29T02:36:17;21.03;;;11.63;;
10884;SDS011;5495;53.252;10.390;2023-01-29T02:38:55;19.53;;;11.97;;
10884;SDS011;5495;53.252;10.390;2023-01-29T02:41:30;18.10;;;12.00;;
10884;SDS011;5495;53.252;10.390;2023-01-29T02:44:08;21.37;;;11.53;;
10884;SDS011;5495;53.252;10.390;2023-01-29T02:46:45;18.40;;;13.30;;
10884;SDS011;5495;53.252;10.390;2023-01-29T02:49:30;19.87;;;12.17;;
10884;SDS011;5495;53.252;10.390;2023-01-29T02:52:20;18.97;;;12.90;;
10884;SDS011;5495;53.252;10.390;2023-01-29T02:54:58;20.37;;;12.90;;
10884;SDS011;5495;53.252;10.390;2023-01-29T02:57:38;17.50;;;12.03;;
10884;SDS011;5495;53.252;10.390;2023-01-29T03:00:18;21.67;;;13.60;;
10884;SDS011;5495;53.252;10.390;2023-01-29T03:02:48;19.43;;;12.53;;
10884;SDS011;5495;53.252;10.390;2023-01-29T03:05:30;20.50;;;12.47;;
10884;SDS011;5495;53.252;10.390;2023-01-29T03:08:03;18.93;;;12.53;;
10884;SDS011;5495;53.252;10.390;2023-01-29T03:10:43;20.13;;;12.97;;
10884;SDS011;5495;53.252;10.390;2023-01-29T03:13:16;18.13;;;11.70;;
10884;SDS011;5495;53.252;10.390;2023-01-29T03:15:51;17.00;;;12.47;;
10884;SDS011;5495;53.252;10.390;2023-01-29T03:18:26;18.67;;;12.33;;
10884;SDS011;5495;53.252;10.390;2023-01-29T03:20:59;19.47;;;12.63;;
10884;SDS011;5495;53.252;10.390;2023-01-29T03:23:50;17.20;;;11.50;;
10884;SDS011;5495;53.252;10.390;2023-01-29T03:26:39;21.27;;;11.83;;
10884;SDS011;5495;53.252;10.390;2023-01-29T03:29:26;19.73;;;12.50;;
10884;SDS011;5495;53.252;10.390;2023-01-29T03:32:13;22.30;;;12.00;;
10884;SDS011;5495;53.252;10.390;2023-01-29T03:34:54;20.07;;;13.53;;
10884;SDS011;5495;53.252;10.390;2023-01-29T03:37:25;19.90;;;11.93;;
10884;SDS011;5495;53.252;10.390;2023-01-29T03:39:57;17.60;;;12.10;;
10884;SDS011;5495;53.252;10.390;2023-01-29T03:42:25;24.43;;;13.00;;
10884;SDS011;5495;53.252;10.390;2023-01-29T03:44:56;19.07;;;12.73;;
10884;SDS011;5495;53.252;10.390;2023-01-29T03:47:36;17.73;;;12.30;;
10884;SDS011;5495;53.252;10.390;2023-01-29T03:50:13;17.67;;;12.50;;
10884;SDS011;5495;53.252;10.390;2023-01-29T03:52:55;19.83;;;12.93;;
10884;SDS011;5495;53.252;10.390;2023-01-29T03:55:32;21.63;;;12.57;;
10884;SDS011;5495;53.252;10.390;2023-01-29T03:58:04;20.67;;;13.40;;
10884;SDS011;5495;53.252;10.390;2023-01-29T04:00:44;20.43;;;11.73;;
10884;SDS011;5495;53.252;10.390;2023-01-29T04:03:22;20.50;;;12.97;;
10884;SDS011;5495;53.252;10.390;2023-01-29T04:05:55;20.73;;;12.40;;
10884;SDS011;5495;53.252;10.390;2023-01-29T04:08:31;17.67;;;12.53;;
10884;SDS011;5495;53.252;10.390;2023-01-29T04:11:03;16.50;;;11.53;;
10884;SDS011;5495;53.252;10.390;2023-01-29T04:13:36;20.07;;;12.50;;
10884;SDS011;5495;53.252;10.390;2023-01-29T04:16:05;18.00;;;12.53;;
10884;SDS011;5495;53.252;10.390;2023-01-29T04:18:43;18.20;;;12.67;;
10884;SDS011;5495;53.252;10.390;2023-01-29T04:21:12;21.13;;;12.13;;
10884;SDS011;5495;53.252;10.390;2023-01-29T04:23:40;18.17;;;12.17;;
10884;SDS011;5495;53.252;10.390;2023-01-29T04:29:06;19.03;;;13.07;;
10884;SDS011;5495;53.252;10.390;2023-01-29T04:31:42;20.10;;;12.63;;
10884;SDS011;5495;53.252;10.390;2023-01-29T04:34:20;19.10;;;12.30;;
10884;SDS011;5495;53.252;10.390;2023-01-29T04:36:58;19.07;;;12.17;;
10884;SDS011;5495;53.252;10.390;2023-01-29T04:39:53;19.70;;;11.93;;
10884;SDS011;5495;53.252;10.390;2023-01-29T04:42:28;18.77;;;12.20;;
10884;SDS011;5495;53.252;10.390;2023-01-29T04:45:11;19.63;;;12.77;;
10884;SDS011;5495;53.252;10.390;2023-01-29T04:47:46;20.33;;;13.77;;
10884;SDS011;5495;53.252;10.390;2023-01-29T04:50:23;21.83;;;13.20;;
10884;SDS011;5495;53.252;10.390;2023-01-29T04:52:56;20.43;;;13.83;;
10884;SDS011;5495;53.252;10.390;2023-01-29T04:55:28;20.90;;;13.23;;
10884;SDS011;5495;53.252;10.390;2023-01-29T04:58:03;19.37;;;13.27;;
10884;SDS011;5495;53.252;10.390;2023-01-29T05:00:34;21.60;;;14.03;;
10884;SDS011;5495;53.252;10.390;2023-01-29T05:03:06;21.93;;;14.10;;
10884;SDS011;5495;53.252;10.390;2023-01-29T05:05:37;21.53;;;14.90;;
10884;SDS011;5495;53.252;10.390;2023-01-29T05:08:07;21.97;;;14.10;;
10884;SDS011;5495;53.252;10.390;2023-01-29T05:10:46;22.93;;;14.13;;
10884;SDS011;5495;53.252;10.390;2023-01-29T05:13:15;23.57;;;15.10;;
10884;SDS011;5495;53.252;10.390;2023-01-29T05:15:45;24.00;;;15.10;;
10884;SDS011;5495;53.252;10.390;2023-01-29T05:18:15;21.70;;;14.40;;
10884;SDS011;5495;53.252;10.390;2023-01-29T05:20:44;21.10;;;13.67;;
10884;SDS011;5495;53.252;10.390;2023-01-29T05:23:14;21.27;;;15.23;;
10884;SDS011;5495;53.252;10.390;2023-01-29T05:25:44;23.33;;;14.77;;
10884;SDS011;5495;53.252;10.390;2023-01-29T05:28:12;23.23;;;14.60;;
10884;SDS011;5495;53.252;10.390;2023-01-29T05:30:41;22.13;;;14.13;;
10884;SDS011;5495;53.252;10.390;2023-01-29T05:33:11;22.53;;;14.03;;
10884;SDS011;5495;53.252;10.390;2023-01-29T05:35:40;22.83;;;14.23;;
10884;SDS011;5495;53.252;10.390;2023-01-29T05:38:09;21.40;;;14.60;;
10884;SDS011;5495;53.252;10.390;2023-01-29T05:40:37;21.53;;;14.53;;
10884;SDS011;5495;53.252;10.390;2023-01-29T05:43:10;23.07;;;14.67;;
10884;SDS011;5495;53.252;10.390;2023-01-29T05:45:41;19.03;;;13.37;;
10884;SDS011;5495;53.252;10.390;2023-01-29T05:48:10;20.40;;;12.57;;
10884;SDS011;5495;53.252;10.390;2023-01-29T05:50:37;21.77;;;13.37;;
10884;SDS011;5495;53.252;10.390;2023-01-29T05:53:04;21.03;;;12.60;;
10884;SDS011;5495;53.252;10.390;2023-01-29T05:55:33;19.23;;;13.53;;
10884;SDS011;5495;53.252;10.390;2023-01-29T05:58:01;20.77;;;13.93;;
10884;SDS011;5495;53.252;10.390;2023-01-29T06:00:28;21.37;;;14.13;;
10884;SDS011;5495;53.252;10.390;2023-01-29T06:02:57;24.00;;;14.73;;
10884;SDS011;5495;53.252;10.390;2023-01-29T06:05:25;21.07;;;13.60;;
10884;SDS011;5495;53.252;10.390;2023-01-29T06:07:52;20.60;;;13.27;;
10884;SDS011;5495;53.252;10.390;2023-01-29T06:10:19;22.03;;;13.50;;
10884;SDS011;5495;53.252;10.390;2023-01-29T06:12:56;22.17;;;13.33;;
10884;SDS011;5495;53.252;10.390;2023-01-29T06:15:23;20.57;;;14.00;;
10884;SDS011;5495;53.252;10.390;2023-01-29T06:17:52;21.70;;;14.00;;
10884;SDS011;5495;53.252;10.390;2023-01-29T06:20:19;22.93;;;14.53;;
10884;SDS011;5495;53.252;10.390;2023-01-29T06:22:46;24.80;;;13.60;;
10884;SDS011;5495;53.252;10.390;2023-01-29T06:25:14;21.93;;;14.73;;
10884;SDS011;5495;53.252;10.390;2023-01-29T06:27:41;23.03;;;14.00;;
10884;SDS011;5495;53.252;10.390;2023-01-29T06:30:12;20.23;;;13.07;;
10884;SDS011;5495;53.252;10.390;2023-01-29T06:32:40;23.67;;;14.23;;
10884;SDS011;5495;53.252;10.390;2023-01-29T06:35:07;22.13;;;13.70;;
10884;SDS011;5495;53.252;10.390;2023-01-29T06:37:35;21.03;;;13.43;;
10884;SDS011;5495;53.252;10.390;2023-01-29T06:40:04;21.27;;;14.43;;
10884;SDS011;5495;53.252;10.390;2023-01-29T06:42:33;18.77;;;12.67;;
10884;SDS011;5495;53.252;10.390;2023-01-29T06:45:01;23.17;;;14.63;;
10884;SDS011;5495;53.252;10.390;2023-01-29T06:47:31;21.03;;;14.07;;
10884;SDS011;5495;53.252;10.390;2023-01-29T06:49:58;23.70;;;14.60;;
10884;SDS011;5495;53.252;10.390;2023-01-29T06:52:26;20.70;;;13.23;;
10884;SDS011;5495;53.252;10.390;2023-01-29T06:54:53;19.73;;;13.57;;
10884;SDS011;5495;53.252;10.390;2023-01-29T06:57:21;21.77;;;13.83;;
10884;SDS011;5495;53.252;10.390;2023-01-29T06:59:49;22.60;;;14.97;;
10884;SDS011;5495;53.252;10.390;2023-01-29T07:02:16;21.60;;;13.30;;
10884;SDS011;5495;53.252;10.390;2023-01-29T07:04:46;21.47;;;13.97;;
10884;SDS011;5495;53.252;10.390;2023-01-29T07:07:14;21.83;;;13.53;;
10884;SDS011;5495;53.252;10.390;2023-01-29T07:09:42;21.27;;;14.20;;
10884;SDS011;5495;53.252;10.390;2023-01-29T07:12:10;23.40;;;13.97;;
10884;SDS011;5495;53.252;10.390;2023-01-29T07:14:42;20.63;;;13.40;;
10884;SDS011;5495;53.252;10.390;2023-01-29T07:17:13;21.87;;;14.63;;
10884;SDS011;5495;53.252;10.390;2023-01-29T07:19:40;20.77;;;13.43;;
10884;SDS011;5495;53.252;10.390;2023-01-29T07:22:11;20.97;;;13.87;;
10884;SDS011;5495;53.252;10.390;2023-01-29T07:24:38;19.67;;;12.73;;
10884;SDS011;5495;53.252;10.390;2023-01-29T07:27:06;17.67;;;11.77;;
10884;SDS011;5495;53.252;10.390;2023-01-29T07:29:33;19.87;;;12.77;;
10884;SDS011;5495;53.252;10.390;2023-01-29T07:32:01;20.80;;;13.00;;
10884;SDS011;5495;53.252;10.390;2023-01-29T07:34:28;19.03;;;12.77;;
10884;SDS011;5495;53.252;10.390;2023-01-29T07:36:56;18.10;;;12.63;;
10884;SDS011;5495;53.252;10.390;2023-01-29T07:39:35;23.90;;;14.53;;
10884;SDS011;5495;53.252;10.390;2023-01-29T07:42:03;21.33;;;14.07;;
10884;SDS011;5495;53.252;10.390;2023-01-29T07:44:30;20.93;;;13.83;;
10884;SDS011;5495;53.252;10.390;2023-01-29T07:46:57;22.57;;;13.77;;
10884;SDS011;5495;53.252;10.390;2023-01-29T07:49:25;21.83;;;12.80;;
10884;SDS011;5495;53.252;10.390;2023-01-29T07:51:53;20.03;;;14.20;;
10884;SDS011;5495;53.252;10.390;2023-01-29T07:54:24;22.57;;;14.97;;
10884;SDS011;5495;53.252;10.390;2023-01-29T07:56:53;21.97;;;14.90;;
10884;SDS011;5495;53.252;10.390;2023-01-29T07:59:21;21.20;;;15.23;;
10884;SDS011;5495;53.252;10.390;2023-01-29T08:01:49;23.13;;;14.30;;
10884;SDS011;5495;53.252;10.390;2023-01-29T08:04:18;27.27;;;15.23;;
10884;SDS011;5495;53.252;10.390;2023-01-29T08:06:45;22.83;;;14.33;;
10884;SDS011;5495;53.252;10.390;2023-01-29T08:09:13;22.47;;;14.47;;
10884;SDS011;5495;53.252;10.390;2023-01-29T08:11:40;21.43;;;14.93;;
10884;SDS011;5495;53.252;10.390;2023-01-29T08:14:09;22.33;;;14.47;;
10884;SDS011;5495;53.252;10.390;2023-01-29T08:16:36;22.47;;;14.87;;
10884;SDS011;5495;53.252;10.390;2023-01-29T08:19:03;23.60;;;14.47;;
10884;SDS011;5495;53.252;10.390;2023-01-29T08:21:31;23.73;;;15.00;;
10884;SDS011;5495;53.252;10.390;2023-01-29T08:24:00;25.30;;;15.20;;
10884;SDS011;5495;53.252;10.390;2023-01-29T08:26:28;23.43;;;15.03;;
10884;SDS011;5495;53.252;10.390;2023-01-29T08:28:55;20.77;;;13.93;;
10884;SDS011;5495;53.252;10.390;2023-01-29T08:31:25;25.33;;;15.97;;
10884;SDS011;5495;53.252;10.390;2023-01-29T08:33:53;23.43;;;15.87;;
10884;SDS011;5495;53.252;10.390;2023-01-29T08:36:21;25.40;;;14.93;;
10884;SDS011;5495;53.252;10.390;2023-01-29T08:38:49;23.87;;;14.70;;
10884;SDS011;5495;53.252;10.390;2023-01-29T08:41:16;23.33;;;14.70;;
10884;SDS011;5495;53.252;10.390;2023-01-29T08:43:43;25.97;;;15.17;;
10884;SDS011;5495;53.252;10.390;2023-01-29T08:46:11;24.57;;;15.30;;
10884;SDS011;5495;53.252;10.390;2023-01-29T08:48:40;26.60;;;15.57;;
10884;SDS011;5495;53.252;10.390;2023-01-29T08:51:08;22.10;;;14.90;;
10884;SDS011;5495;53.252;10.390;2023-01-29T08:53:35;22.77;;;15.13;;
10884;SDS011;5495;53.252;10.390;2023-01-29T08:56:03;26.27;;;16.10;;
10884;SDS011;5495;53.252;10.390;2023-01-29T08:58:31;25.07;;;16.20;;
10884;SDS011;5495;53.252;10.390;2023-01-29T09:01:04;27.20;;;17.07;;
10884;SDS011;5495;53.252;10.390;2023-01-29T09:03:32;29.27;;;17.33;;
10884;SDS011;5495;53.252;10.390;2023-01-29T09:06:02;24.23;;;16.17;;
10884;SDS011;5495;53.252;10.390;2023-01-29T09:08:32;29.70;;;17.80;;
10884;SDS011;5495;53.252;10.390;2023-01-29T09:11:00;30.63;;;18.67;;
10884;SDS011;5495;53.252;10.390;2023-01-29T09:13:28;32.50;;;19.63;;
10884;SDS011;5495;53.252;10.390;2023-01-29T09:15:57;31.37;;;19.00;;
10884;SDS011;5495;53.252;10.390;2023-01-29T09:18:25;33.53;;;20.60;;
10884;SDS011;5495;53.252;10.390;2023-01-29T09:20:52;34.77;;;21.50;;
10884;SDS011;5495;53.252;10.390;2023-01-29T09:23:23;35.30;;;19.53;;
10884;SDS011;5495;53.252;10.390;2023-01-29T09:25:50;35.40;;;20.33;;
10884;SDS011;5495;53.252;10.390;2023-01-29T09:28:17;33.23;;;19.67;;
10884;SDS011;5495;53.252;10.390;2023-01-29T09:30:45;33.73;;;19.97;;
10884;SDS011;5495;53.252;10.390;2023-01-29T09:33:12;35.87;;;21.33;;
10884;SDS011;5495;53.252;10.390;2023-01-29T09:35:40;35.33;;;21.90;;
10884;SDS011;5495;53.252;10.390;2023-01-29T09:38:15;35.53;;;22.67;;
10884;SDS011;5495;53.252;10.390;2023-01-29T09:40:47;38.40;;;21.33;;
10884;SDS011;5495;53.252;10.390;2023-01-29T09:43:22;33.70;;;21.27;;
10884;SDS011;5495;53.252;10.390;2023-01-29T09:45:53;35.63;;;21.47;;
10884;SDS011;5495;53.252;10.390;2023-01-29T09:48:27;33.73;;;21.90;;
10884;SDS011;5495;53.252;10.390;2023-01-29T09:50:57;38.47;;;22.70;;
10884;SDS011;5495;53.252;10.390;2023-01-29T09:53:29;36.57;;;21.57;;
10884;SDS011;5495;53.252;10.390;2023-01-29T09:56:07;38.30;;;22.63;;
10884;SDS011;5495;53.252;10.390;2023-01-29T09:58:39;38.10;;;23.00;;
10884;SDS011;5495;53.252;10.390;2023-01-29T10:01:11;36.13;;;22.27;;
10884;SDS011;5495;53.252;10.390;2023-01-29T10:06:50;34.17;;;21.17;;
10884;SDS011;5495;53.252;10.390;2023-01-29T10:12:41;32.93;;;20.70;;
10884;SDS011;5495;53.252;10.390;2023-01-29T10:15:23;33.60;;;21.07;;
10884;SDS011;5495;53.252;10.390;2023-01-29T10:18:05;34.20;;;21.97;;
10884;SDS011;5495;53.252;10.390;2023-01-29T10:20:52;35.97;;;21.00;;
10884;SDS011;5495;53.252;10.390;2023-01-29T10:23:34;34.77;;;21.70;;
10884;SDS011;5495;53.252;10.390;2023-01-29T10:26:05;33.17;;;20.30;;
10884;SDS011;5495;53.252;10.390;2023-01-29T10:28:40;31.87;;;21.00;;
10884;SDS011;5495;53.252;10.390;2023-01-29T10:31:11;37.83;;;21.10;;
10884;SDS011;5495;53.252;10.390;2023-01-29T10:33:44;34.50;;;21.33;;
10884;SDS011;5495;53.252;10.390;2023-01-29T10:36:16;34.90;;;22.23;;
10884;SDS011;5495;53.252;10.390;2023-01-29T10:38:46;31.43;;;20.50;;
10884;SDS011;5495;53.252;10.390;2023-01-29T10:41:22;34.73;;;20.77;;
10884;SDS011;5495;53.252;10.390;2023-01-29T10:44:16;30.40;;;20.33;;
10884;SDS011;5495;53.252;10.390;2023-01-29T10:46:56;33.17;;;20.63;;
10884;SDS011;5495;53.252;10.390;2023-01-29T10:49:49;30.97;;;19.10;;
10884;SDS011;5495;53.252;10.390;2023-01-29T10:52:33;28.17;;;18.77;;
10884;SDS011;5495;53.252;10.390;2023-01-29T10:55:11;27.37;;;18.20;;
10884;SDS011;5495;53.252;10.390;2023-01-29T10:57:51;29.60;;;18.90;;
10884;SDS011;5495;53.252;10.390;2023-01-29T11:00:29;26.53;;;18.50;;
10884;SDS011;5495;53.252;10.390;2023-01-29T11:03:11;28.53;;;18.07;;
10884;SDS011;5495;53.252;10.390;2023-01-29T11:05:43;31.47;;;19.00;;
10884;SDS011;5495;53.252;10.390;2023-01-29T11:08:20;28.60;;;18.60;;
10884;SDS011;5495;53.252;10.390;2023-01-29T11:10:53;28.13;;;18.23;;
10884;SDS011;5495;53.252;10.390;2023-01-29T11:13:31;26.53;;;17.83;;
10884;SDS011;5495;53.252;10.390;2023-01-29T11:16:04;28.30;;;17.10;;
10884;SDS011;5495;53.252;10.390;2023-01-29T11:18:53;25.53;;;17.20;;
10884;SDS011;5495;53.252;10.390;2023-01-29T11:21:23;24.77;;;16.10;;
10884;SDS011;5495;53.252;10.390;2023-01-29T11:24:04;28.17;;;17.60;;
10884;SDS011;5495;53.252;10.390;2023-01-29T11:26:33;24.43;;;16.43;;
10884;SDS011;5495;53.252;10.390;2023-01-29T11:29:04;25.03;;;17.03;;
10884;SDS011;5495;53.252;10.390;2023-01-29T11:31:53;24.03;;;16.37;;
10884;SDS011;5495;53.252;10.390;2023-01-29T11:34:22;24.33;;;16.20;;
10884;SDS011;5495;53.252;10.390;2023-01-29T11:36:55;24.93;;;16.13;;
10884;SDS011;5495;53.252;10.390;2023-01-29T11:39:24;24.97;;;16.93;;
10884;SDS011;5495;53.252;10.390;2023-01-29T11:41:54;24.87;;;16.33;;
10884;SDS011;5495;53.252;10.390;2023-01-29T11:44:27;26.03;;;16.83;;
10884;SDS011;5495;53.252;10.390;2023-01-29T11:50:16;25.47;;;16.57;;
10884;SDS011;5495;53.252;10.390;2023-01-29T11:52:48;24.73;;;16.53;;
10884;SDS011;5495;53.252;10.390;2023-01-29T11:55:16;24.50;;;15.13;;
10884;SDS011;5495;53.252;10.390;2023-01-29T11:57:49;25.57;;;16.50;;
10884;SDS011;5495;53.252;10.390;2023-01-29T12:00:29;22.10;;;14.60;;
10884;SDS011;5495;53.252;10.390;2023-01-29T12:03:00;23.20;;;15.57;;
10884;SDS011;5495;53.252;10.390;2023-01-29T12:05:34;24.60;;;15.60;;
10884;SDS011;5495;53.252;10.390;2023-01-29T12:08:03;22.33;;;15.27;;
10884;SDS011;5495;53.252;10.390;2023-01-29T12:10:42;20.70;;;14.43;;
10884;SDS011;5495;53.252;10.390;2023-01-29T12:13:17;26.90;;;15.57;;
10884;SDS011;5495;53.252;10.390;2023-01-29T12:16:04;22.43;;;14.43;;
10884;SDS011;5495;53.252;10.390;2023-01-29T12:18:42;22.30;;;14.97;;
10884;SDS011;5495;53.252;10.390;2023-01-29T12:21:19;21.77;;;15.10;;
10884;SDS011;5495;53.252;10.390;2023-01-29T12:23:56;20.70;;;14.43;;
10884;SDS011;5495;53.252;10.390;2023-01-29T12:26:31;22.10;;;14.73;;
10884;SDS011;5495;53.252;10.390;2023-01-29T12:29:10;21.47;;;14.97;;
10884;SDS011;5495;53.252;10.390;2023-01-29T12:31:50;23.37;;;15.03;;
10884;SDS011;5495;53.252;10.390;2023-01-29T12:34:30;20.80;;;14.20;;
10884;SDS011;5495;53.252;10.390;2023-01-29T12:37:10;21.57;;;14.50;;
10884;SDS011;5495;53.252;10.390;2023-01-29T12:39:43;23.33;;;14.87;;
10884;SDS011;5495;53.252;10.390;2023-01-29T12:42:12;20.70;;;13.90;;
10884;SDS011;5495;53.252;10.390;2023-01-29T12:44:45;22.23;;;14.73;;
10884;SDS011;5495;53.252;10.390;2023-01-29T12:47:17;22.67;;;14.60;;
10884;SDS011;5495;53.252;10.390;2023-01-29T12:49:50;23.77;;;15.30;;
10884;SDS011;5495;53.252;10.390;2023-01-29T12:52:24;23.17;;;14.13;;
10884;SDS011;5495;53.252;10.390;2023-01-29T12:55:03;23.07;;;14.43;;
10884;SDS011;5495;53.252;10.390;2023-01-29T12:57:35;22.90;;;15.27;;
10884;SDS011;5495;53.252;10.390;2023-01-29T13:00:09;25.80;;;16.47;;
10884;SDS011;5495;53.252;10.390;2023-01-29T13:02:39;24.93;;;14.70;;
10884;SDS011;5495;53.252;10.390;2023-01-29T13:05:19;23.77;;;14.93;;
10884;SDS011;5495;53.252;10.390;2023-01-29T13:07:54;23.83;;;13.80;;
10884;SDS011;5495;53.252;10.390;2023-01-29T13:10:31;23.17;;;14.97;;
10884;SDS011;5495;53.252;10.390;2023-01-29T13:13:03;24.20;;;14.67;;
10884;SDS011;5495;53.252;10.390;2023-01-29T13:15:38;21.97;;;14.53;;
10884;SDS011;5495;53.252;10.390;2023-01-29T13:18:17;24.93;;;14.47;;
10884;SDS011;5495;53.252;10.390;2023-01-29T13:20:57;21.20;;;14.60;;
10884;SDS011;5495;53.252;10.390;2023-01-29T13:23:32;23.10;;;14.60;;
10884;SDS011;5495;53.252;10.390;2023-01-29T13:26:02;23.60;;;15.30;;
10884;SDS011;5495;53.252;10.390;2023-01-29T13:28:31;24.17;;;15.63;;
10884;SDS011;5495;53.252;10.390;2023-01-29T13:31:11;23.70;;;15.83;;
10884;SDS011;5495;53.252;10.390;2023-01-29T13:34:12;23.13;;;15.53;;
10884;SDS011;5495;53.252;10.390;2023-01-29T13:36:44;29.03;;;15.63;;
10884;SDS011;5495;53.252;10.390;2023-01-29T13:39:25;25.73;;;16.20;;
10884;SDS011;5495;53.252;10.390;2023-01-29T13:41:55;24.57;;;15.40;;
10884;SDS011;5495;53.252;10.390;2023-01-29T13:44:24;24.30;;;15.90;;
10884;SDS011;5495;53.252;10.390;2023-01-29T13:46:56;26.60;;;14.87;;
10884;SDS011;5495;53.252;10.390;2023-01-29T13:49:32;27.57;;;15.97;;
10884;SDS011;5495;53.252;10.390;2023-01-29T13:52:19;20.60;;;14.43;;
10884;SDS011;5495;53.252;10.390;2023-01-29T13:55:02;23.93;;;16.13;;
10884;SDS011;5495;53.252;10.390;2023-01-29T14:06:37;25.07;;;15.37;;
10884;SDS011;5495;53.252;10.390;2023-01-29T14:12:36;23.77;;;15.63;;
10884;SDS011;5495;53.252;10.390;2023-01-29T14:15:28;22.17;;;14.37;;
10884;SDS011;5495;53.252;10.390;2023-01-29T14:17:59;24.37;;;15.53;;
10884;SDS011;5495;53.252;10.390;2023-01-29T14:20:31;22.73;;;15.20;;
10884;SDS011;5495;53.252;10.390;2023-01-29T14:23:07;24.13;;;15.53;;
10884;SDS011;5495;53.252;10.390;2023-01-29T14:26:01;26.20;;;16.17;;
10884;SDS011;5495;53.252;10.390;2023-01-29T14:28:45;25.47;;;15.97;;
10884;SDS011;5495;53.252;10.390;2023-01-29T14:31:27;21.33;;;14.93;;
10884;SDS011;5495;53.252;10.390;2023-01-29T14:34:03;26.30;;;16.03;;
10884;SDS011;5495;53.252;10.390;2023-01-29T14:36:41;23.63;;;15.47;;
10884;SDS011;5495;53.252;10.390;2023-01-29T14:39:18;24.27;;;16.23;;
10884;SDS011;5495;53.252;10.390;2023-01-29T14:41:52;23.90;;;15.93;;
10884;SDS011;5495;53.252;10.390;2023-01-29T14:50:45;24.10;;;16.20;;
10884;SDS011;5495;53.252;10.390;2023-01-29T14:53:28;25.30;;;15.73;;
10884;SDS011;5495;53.252;10.390;2023-01-29T14:56:09;26.40;;;16.23;;
10884;SDS011;5495;53.252;10.390;2023-01-29T14:58:41;25.60;;;17.00;;
10884;SDS011;5495;53.252;10.390;2023-01-29T15:01:16;28.17;;;17.00;;
10884;SDS011;5495;53.252;10.390;2023-01-29T15:03:49;27.73;;;16.40;;
10884;SDS011;5495;53.252;10.390;2023-01-29T15:06:21;29.30;;;16.63;;
10884;SDS011;5495;53.252;10.390;2023-01-29T15:08:55;26.57;;;16.97;;
10884;SDS011;5495;53.252;10.390;2023-01-29T15:11:32;27.33;;;16.93;;
10884;SDS011;5495;53.252;10.390;2023-01-29T15:14:08;24.93;;;16.83;;
10884;SDS011;5495;53.252;10.390;2023-01-29T15:19:53;27.57;;;17.80;;
10884;SDS011;5495;53.252;10.390;2023-01-29T15:22:23;28.13;;;17.03;;
10884;SDS011;5495;53.252;10.390;2023-01-29T15:25:04;28.20;;;17.90;;
10884;SDS011;5495;53.252;10.390;2023-01-29T15:27:42;25.50;;;16.53;;
10884;SDS011;5495;53.252;10.390;2023-01-29T15:30:14;26.90;;;17.07;;
10884;SDS011;5495;53.252;10.390;2023-01-29T15:32:46;24.80;;;16.40;;
10884;SDS011;5495;53.252;10.390;2023-01-29T15:35:21;27.87;;;17.53;;
10884;SDS011;5495;53.252;10.390;2023-01-29T15:37:59;30.77;;;17.87;;
10884;SDS011;5495;53.252;10.390;2023-01-29T15:40:28;29.23;;;17.43;;